Aeroporto :
LOGIN :

Iscrizione | Disclaimer

   EN    FR    IT 

 










Sommario :    VFR   VFR Marginale   IFR   IFR Intensivo   IFR Molto Intensivo
Visibilità : 
Base nubi : 
>= 8 km
>= 3000ft
5 / 8 km
1000 / 3000 ft
1500m / 5 km
500 / 1000 ft
800 / 1500m
200 / 500 ft
< 800m
< 200 ft
Simboli :   Temporali  Nebbia  Neve Forte  Precipitazioni Forti  Vento > 20 kt
SIGMETs :   Varie  Temporali  Ghiacco  Turbolenza  Onda orograficha  Ceneri Vulcaniche






- Altitudine del aeroporto : 359 ft
- Codice IATA : BVA


LFOB - Beauvais

ULTIMO METAR :
  • 270600Z AUTO 15007KT 9999 BKN009/// BKN013/// BKN084/// ///TCU 16/15 Q1013 BECMG SCT015 BKN030

METARs OBSOLETI :
  • 270530Z AUTO 15008KT 9999 BKN009 BKN080 OVC150 15/15 Q1013 TEMPO 3000 BR BECMG 20015G25KT SCT030
  • 270500Z AUTO 16006KT 9999 BKN009 BKN082 BKN150 15/15 Q1013 TEMPO 3000 BR VV/// BECMG 20015G25KT
  • 270430Z AUTO 16007KT 9999 BKN010 OVC150 15/15 Q1014 TEMPO 3000 BR VV/// BECMG 20015G25KT
  • 270400Z AUTO 17005KT 9999 FEW010 OVC170 15/15 Q1014 TEMPO 0500 FG VV///
  • 270330Z AUTO 19005KT CAVOK 16/15 Q1014 TEMPO 0500 FG VV///

TAF TAF LFOB
Valido dal 27 a 06 ore il 28 a 06 ore UTC


270500Z 2706/2806 17012KT 9999 SCT015 BKN030
TEMPO 2706/2707 BKN007
TEMPO 2709/2712 20017G27KT 3000 RA BKN013 OVC020
BECMG 2711/2712 26020G33KT
BECMG 2713/2715 26012KT
BECMG 2717/2720 20005KT
ATIS : +33 3 44 11 49 28



MetMap, La meteo Aeronautica in un colpo d'occhio ! - Copyright ORBIFLY Dicembre 2007 - Disclaimer

ORBIFLY MET'MAP TEAM :

Programmazione e sviluppo : Alexandra Zaïnal
Concezione : Baudouin d'Aumeries
Aiuto per la programmazione : Marc-Olivier Méhu
Supporto tecnico e logistico : Manuel Goepfert
Aiuto per la traduzione : Arnaldo La Scala

Contatto : metmap@orbifly.com




FONTI E CREDITI :

   NOAA